Aviation Digital Data Service (ADDS)

Output produced by METARs form (1740 UTC 21 April 2018)
found at http://aviationweather.gov/adds/metars/
 
LHKE 211715Z 26002KT CAVOK 22/04 Q1017 NOSIG RMK BLU
LHKE 211645Z 26006KT 240V300 CAVOK 24/05 Q1017 NOSIG RMK BLU
LHKE 211615Z 27006KT 240V300 CAVOK 24/04 Q1017 NOSIG RMK BLU
LHKE 211545Z 24004KT CAVOK 25/05 Q1018 NOSIG RMK BLU
LHKE 211515Z 28006KT 240V320 CAVOK 25/04 Q1018 NOSIG RMK BLU
LHKE 211445Z 27006KT 150V280 CAVOK 25/04 Q1018 NOSIG RMK BLU
LHKE 211415Z 26004KT CAVOK 25/03 Q1019 NOSIG RMK BLU
LHKE 211345Z 21004KT CAVOK 25/03 Q1019 NOSIG RMK BLU
LHKE 211315Z 15004KT CAVOK 25/04 Q1019 NOSIG RMK BLU
LHKE 211245Z VRB02KT CAVOK 25/04 Q1020 NOSIG RMK BLU
LHKE 211215Z VRB04KT CAVOK 24/03 Q1020 NOSIG RMK BLU
LHKE 211145Z VRB02KT CAVOK 24/04 Q1020 NOSIG RMK BLU